createdAt,value
2024-02-24T00:00:07.142Z,99335.56
2024-02-24T00:02:43.851Z,99342.00
2024-02-24T00:05:11.748Z,99347.28
2024-02-24T00:07:39.453Z,99345.69
2024-02-24T00:10:08.249Z,99340.84
2024-02-24T00:12:35.904Z,99344.25
2024-02-24T00:15:04.025Z,99345.34
2024-02-24T00:17:31.952Z,99341.00
2024-02-24T00:19:59.642Z,99343.72
2024-02-24T00:22:27.414Z,99342.47
2024-02-24T00:24:55.266Z,99343.09
2024-02-24T00:27:22.853Z,99347.75
2024-02-24T00:29:50.610Z,99354.66
2024-02-24T00:32:18.342Z,99349.50
2024-02-24T00:34:46.040Z,99360.75
2024-02-24T00:37:13.647Z,99353.69
2024-02-24T00:39:42.615Z,99352.38
2024-02-24T00:42:10.217Z,99347.75
2024-02-24T00:44:38.002Z,99346.44
2024-02-24T00:47:06.356Z,99349.78
2024-02-24T00:49:33.928Z,99349.31
2024-02-24T00:52:01.456Z,99351.56
2024-02-24T00:54:29.630Z,99347.53
2024-02-24T00:56:57.076Z,99349.47
2024-02-24T00:59:24.722Z,99354.44
2024-02-24T01:01:52.497Z,99352.84
2024-02-24T01:04:23.381Z,99352.84
2024-02-24T01:06:53.326Z,99356.38
2024-02-24T01:09:21.822Z,99354.44
2024-02-24T01:11:49.554Z,99350.91
2024-02-24T01:14:17.653Z,99355.56
2024-02-24T01:16:45.714Z,99357.00
2024-02-24T01:19:13.623Z,99359.25
2024-02-24T01:21:44.714Z,99358.13
2024-02-24T01:24:15.334Z,99357.66
2024-02-24T01:26:43.037Z,99354.59
2024-02-24T01:29:11.718Z,99363.59
2024-02-24T01:31:40.990Z,99353.78
2024-02-24T01:34:09.040Z,99355.72
2024-02-24T01:36:38.021Z,99355.06
2024-02-24T01:39:05.712Z,99358.31
2024-02-24T01:41:33.455Z,99356.38
2024-02-24T01:44:01.180Z,99355.25
2024-02-24T01:46:29.688Z,99356.53
2024-02-24T01:48:57.276Z,99357.03
2024-02-24T01:51:25.317Z,99354.78
2024-02-24T01:53:54.276Z,99358.50
2024-02-24T01:56:25.725Z,99359.78
2024-02-24T01:58:53.655Z,99359.47
2024-02-24T02:01:21.842Z,99359.16
2024-02-24T02:03:53.390Z,99360.13
2024-02-24T02:06:22.738Z,99347.28
2024-02-24T02:08:50.692Z,99353.53
2024-02-24T02:11:18.488Z,99354.81
2024-02-24T02:13:46.108Z,99352.41
2024-02-24T02:16:14.286Z,99354.03
2024-02-24T02:18:41.941Z,99360.00
2024-02-24T02:21:10.994Z,99360.47
2024-02-24T02:23:38.840Z,99361.75
2024-02-24T02:26:06.467Z,99367.72
2024-02-24T02:28:34.037Z,99362.25
2024-02-24T02:31:02.724Z,99366.91
2024-02-24T02:33:30.497Z,99367.06
2024-02-24T02:35:58.095Z,99374.16
2024-02-24T02:38:25.909Z,99380.44
2024-02-24T02:40:53.493Z,99382.84
2024-02-24T02:43:21.021Z,99378.66
2024-02-24T02:45:48.676Z,99383.50
2024-02-24T02:48:16.373Z,99392.97
2024-02-24T02:50:44.306Z,99395.09
2024-02-24T02:53:12.207Z,99394.94
2024-02-24T02:55:39.844Z,99398.66
2024-02-24T02:58:09.075Z,99391.72
2024-02-24T03:00:37.729Z,99392.53
2024-02-24T03:03:05.470Z,99394.13
2024-02-24T03:05:33.054Z,99395.75
2024-02-24T03:08:06.913Z,99399.44
2024-02-24T03:10:35.283Z,99396.09
2024-02-24T03:13:02.942Z,99382.88
2024-02-24T03:15:30.707Z,99387.53
2024-02-24T03:17:58.369Z,99382.88
2024-02-24T03:20:32.070Z,99389.47
2024-02-24T03:22:59.585Z,99393.81
2024-02-24T03:25:27.056Z,99387.53
2024-02-24T03:27:55.687Z,99387.88
2024-02-24T03:30:23.161Z,99397.22
2024-02-24T03:32:52.176Z,99391.75
2024-02-24T03:35:19.837Z,99394.78
2024-02-24T03:37:49.141Z,99390.78
2024-02-24T03:40:18.146Z,99384.81
2024-02-24T03:42:45.698Z,99394.13
2024-02-24T03:45:13.344Z,99394.97
2024-02-24T03:47:40.993Z,99393.03
2024-02-24T03:50:09.224Z,99392.69
2024-02-24T03:52:37.489Z,99390.28
2024-02-24T03:55:05.521Z,99386.09
2024-02-24T03:57:33.046Z,99388.50
2024-02-24T04:00:00.809Z,99391.25
2024-02-24T04:02:28.347Z,99398.34
2024-02-24T04:04:55.876Z,99396.41
2024-02-24T04:07:23.591Z,99393.34
2024-02-24T04:09:51.139Z,99396.09
2024-02-24T04:12:18.723Z,99392.22
2024-02-24T04:14:46.619Z,99391.09
2024-02-24T04:17:14.178Z,99391.88
2024-02-24T04:19:41.750Z,99396.56
2024-02-24T04:22:09.489Z,99399.28
2024-02-24T04:24:37.020Z,99406.69
2024-02-24T04:27:04.838Z,99402.84
2024-02-24T04:29:32.749Z,99411.84
2024-02-24T04:32:00.554Z,99414.28
2024-02-24T04:34:28.141Z,99416.50
2024-02-24T04:36:55.829Z,99417.03
2024-02-24T04:39:23.923Z,99414.28
2024-02-24T04:41:51.786Z,99426.03
2024-02-24T04:44:19.851Z,99430.03
2024-02-24T04:46:47.497Z,99437.16
2024-02-24T04:49:15.043Z,99441.78
2024-02-24T04:51:42.740Z,99443.44
2024-02-24T04:54:10.339Z,99437.63
2024-02-24T04:56:38.269Z,99444.22
2024-02-24T04:59:06.188Z,99444.22
2024-02-24T05:01:33.851Z,99447.25
2024-02-24T05:04:01.895Z,99447.25
2024-02-24T05:06:29.944Z,99450.00
2024-02-24T05:08:57.729Z,99443.72
2024-02-24T05:11:25.985Z,99440.34
2024-02-24T05:13:53.924Z,99446.16
2024-02-24T05:16:21.796Z,99449.69
2024-02-24T05:18:49.452Z,99447.25
2024-02-24T05:21:24.541Z,99455.97
2024-02-24T05:23:52.461Z,99457.09
2024-02-24T05:26:28.868Z,99459.03
2024-02-24T05:28:57.933Z,99460.94
2024-02-24T05:31:25.511Z,99465.63
2024-02-24T05:33:54.871Z,99461.59
2024-02-24T05:36:22.736Z,99463.03
2024-02-24T05:38:50.393Z,99460.28
2024-02-24T05:41:18.065Z,99464.66
2024-02-24T05:43:46.756Z,99469.81
2024-02-24T05:46:17.800Z,99477.22
2024-02-24T05:48:46.750Z,99477.22
2024-02-24T05:51:14.705Z,99479.94
2024-02-24T05:53:42.229Z,99482.50
2024-02-24T05:56:09.846Z,99477.84
2024-02-24T05:58:37.695Z,99488.44
2024-02-24T06:01:05.364Z,99483.81
2024-02-24T06:03:33.194Z,99486.84
2024-02-24T06:06:01.276Z,99493.44
2024-02-24T06:08:28.988Z,99496.50
2024-02-24T06:10:56.684Z,99501.19
2024-02-24T06:13:24.484Z,99510.00
2024-02-24T06:15:52.202Z,99506.13
2024-02-24T06:18:21.196Z,99516.47
2024-02-24T06:20:49.203Z,99518.06
2024-02-24T06:23:16.919Z,99520.00
2024-02-24T06:25:44.887Z,99521.13
2024-02-24T06:28:12.977Z,99525.47
2024-02-24T06:30:40.557Z,99521.94
2024-02-24T06:33:10.029Z,99530.16
2024-02-24T06:35:37.863Z,99534.50
2024-02-24T06:38:05.584Z,99535.28
2024-02-24T06:40:41.022Z,99530.16
2024-02-24T06:43:14.003Z,99537.88
2024-02-24T06:45:42.175Z,99533.50
2024-02-24T06:48:10.452Z,99531.91
2024-02-24T06:50:38.192Z,99537.38
2024-02-24T06:53:05.895Z,99541.22
2024-02-24T06:55:34.002Z,99544.78
2024-02-24T06:58:01.547Z,99546.69
2024-02-24T07:00:29.533Z,99548.63
2024-02-24T07:02:57.367Z,99550.56
2024-02-24T07:05:26.954Z,99548.63
2024-02-24T07:07:55.823Z,99557.66
2024-02-24T07:10:23.788Z,99554.91
2024-02-24T07:12:51.487Z,99558.25
2024-02-24T07:15:19.343Z,99570.66
2024-02-24T07:17:47.140Z,99579.19
2024-02-24T07:20:15.135Z,99576.44
2024-02-24T07:22:43.228Z,99580.00
2024-02-24T07:25:10.947Z,99579.19
2024-02-24T07:27:38.692Z,99587.88
2024-02-24T07:30:07.588Z,99591.09
2024-02-24T07:32:38.722Z,99591.09
2024-02-24T07:35:08.920Z,99593.53
2024-02-24T07:37:36.708Z,99605.75
2024-02-24T07:40:04.853Z,99603.53
2024-02-24T07:42:32.451Z,99604.00
2024-02-24T07:45:00.277Z,99603.38
2024-02-24T07:47:29.175Z,99604.34
2024-02-24T07:49:56.776Z,99604.88
2024-02-24T07:52:24.493Z,99599.25
2024-02-24T07:54:52.020Z,99599.72
2024-02-24T07:57:20.140Z,99604.56
2024-02-24T07:59:48.954Z,99610.22
2024-02-24T08:02:16.713Z,99609.59
2024-02-24T08:04:44.295Z,99614.13
2024-02-24T08:07:12.109Z,99613.66
2024-02-24T08:09:39.724Z,99617.06
2024-02-24T08:12:08.069Z,99623.53
2024-02-24T08:14:35.962Z,99625.31
2024-02-24T08:17:03.518Z,99624.34
2024-02-24T08:19:34.836Z,99629.69
2024-02-24T08:22:02.496Z,99641.81
2024-02-24T08:24:30.934Z,99639.38
2024-02-24T08:26:58.815Z,99640.22
2024-02-24T08:29:28.157Z,99640.53
2024-02-24T08:31:55.949Z,99641.66
2024-02-24T08:34:24.690Z,99644.09
2024-02-24T08:36:55.321Z,99643.28
2024-02-24T08:39:23.238Z,99652.31
2024-02-24T08:41:50.808Z,99654.22
2024-02-24T08:44:18.364Z,99660.38
2024-02-24T08:46:46.259Z,99660.38
2024-02-24T08:49:13.778Z,99664.25
2024-02-24T08:51:41.336Z,99671.16
2024-02-24T08:54:09.091Z,99676.63
2024-02-24T08:56:37.680Z,99676.50
2024-02-24T08:59:06.404Z,99684.72
2024-02-24T09:01:33.912Z,99692.75
2024-02-24T09:04:04.266Z,99708.06
2024-02-24T09:06:37.117Z,99705.09
2024-02-24T09:09:07.683Z,99722.94
2024-02-24T09:11:35.348Z,99717.13
2024-02-24T09:14:03.133Z,99725.75
2024-02-24T09:16:30.854Z,99730.56
2024-02-24T09:18:58.585Z,99723.78
2024-02-24T09:21:26.267Z,99737.47
2024-02-24T09:23:53.867Z,99744.88
2024-02-24T09:26:21.860Z,99748.72
2024-02-24T09:28:49.621Z,99748.38
2024-02-24T09:31:17.166Z,99752.53
2024-02-24T09:33:45.284Z,99749.78
2024-02-24T09:36:13.025Z,99754.84
2024-02-24T09:38:40.634Z,99758.22
2024-02-24T09:41:12.598Z,99765.44
2024-02-24T09:43:40.733Z,99763.81
2024-02-24T09:46:08.627Z,99770.72
2024-02-24T09:48:36.320Z,99767.97
2024-02-24T09:51:05.543Z,99769.59
2024-02-24T09:53:33.445Z,99776.56
2024-02-24T09:56:01.808Z,99772.41
2024-02-24T09:58:34.333Z,99772.16
2024-02-24T10:01:01.989Z,99773.81
2024-02-24T10:03:30.005Z,99777.09
2024-02-24T10:05:57.986Z,99774.44
2024-02-24T10:08:25.941Z,99786.56
2024-02-24T10:10:53.944Z,99782.06
2024-02-24T10:13:22.380Z,99793.69
2024-02-24T10:15:49.977Z,99788.72
2024-02-24T10:18:19.929Z,99795.00
2024-02-24T10:20:48.019Z,99791.44
2024-02-24T10:23:16.328Z,99803.69
2024-02-24T10:25:43.986Z,99802.28
2024-02-24T10:28:19.382Z,99797.81
2024-02-24T10:30:47.951Z,99803.69
2024-02-24T10:33:16.770Z,99805.50
2024-02-24T10:35:46.185Z,99801.81
2024-02-24T10:38:23.760Z,99802.34
2024-02-24T10:41:01.904Z,99806.09
2024-02-24T10:43:30.197Z,99804.63
2024-02-24T10:45:57.800Z,99806.59
2024-02-24T10:48:25.464Z,99809.16
2024-02-24T10:50:54.529Z,99804.63
2024-02-24T10:53:29.236Z,99801.41
2024-02-24T10:56:02.856Z,99806.25
2024-02-24T10:58:34.002Z,99805.44
2024-02-24T11:01:01.670Z,99800.59
2024-02-24T11:03:29.876Z,99807.88
2024-02-24T11:05:57.730Z,99820.13
2024-02-24T11:08:39.495Z,99816.44
2024-02-24T11:11:17.266Z,99829.34
2024-02-24T11:13:59.971Z,99830.00
2024-02-24T11:16:39.962Z,99829.19
2024-02-24T11:19:12.932Z,99828.56
2024-02-24T11:22:02.490Z,99835.16
2024-02-24T11:24:37.512Z,99831.59
2024-02-24T11:27:06.561Z,99840.66
2024-02-24T11:29:37.331Z,99835.31
2024-02-24T11:32:14.381Z,99829.66
2024-02-24T11:34:46.967Z,99843.38
2024-02-24T11:37:17.854Z,99848.22
2024-02-24T11:39:48.224Z,99839.97
2024-02-24T11:42:18.778Z,99845.81
2024-02-24T11:44:48.321Z,99856.63
2024-02-24T11:47:20.072Z,99845.34
2024-02-24T11:49:49.641Z,99851.00
2024-02-24T11:52:17.964Z,99848.22
2024-02-24T11:54:47.898Z,99850.19
2024-02-24T11:57:15.908Z,99849.03
2024-02-24T11:59:43.928Z,99849.84
2024-02-24T12:02:15.867Z,99857.13
2024-02-24T12:04:43.714Z,99851.44
2024-02-24T12:07:11.928Z,99865.38
2024-02-24T12:09:41.117Z,99858.56
2024-02-24T12:12:09.407Z,99859.72
2024-02-24T12:14:37.156Z,99869.38
2024-02-24T12:17:05.956Z,99873.44
2024-02-24T12:19:39.485Z,99874.25
2024-02-24T12:22:10.569Z,99862.13
2024-02-24T12:24:39.491Z,99867.94
2024-02-24T12:27:10.572Z,99867.59
2024-02-24T12:29:39.510Z,99871.97
2024-02-24T12:32:09.095Z,99866.97
2024-02-24T12:34:38.169Z,99884.41
2024-02-24T12:37:07.547Z,99877.13
2024-02-24T12:39:42.211Z,99864.22
2024-02-24T12:42:10.013Z,99869.88
2024-02-24T12:44:37.809Z,99874.06
2024-02-24T12:47:07.071Z,99882.31
2024-02-24T12:49:34.880Z,99884.25
2024-02-24T12:52:04.229Z,99887.00
2024-02-24T12:54:34.215Z,99884.91
2024-02-24T12:57:02.107Z,99891.19
2024-02-24T12:59:30.387Z,99884.91
2024-02-24T13:01:59.601Z,99888.28
2024-02-24T13:04:28.518Z,99891.69
2024-02-24T13:06:57.534Z,99904.09
2024-02-24T13:09:25.441Z,99909.47
2024-02-24T13:11:56.845Z,99913.50
2024-02-24T13:14:25.519Z,99897.97
2024-02-24T13:16:53.411Z,99905.41
2024-02-24T13:19:21.270Z,99906.50
2024-02-24T13:21:48.853Z,99910.03
2024-02-24T13:24:17.380Z,99909.69
2024-02-24T13:26:45.089Z,99917.44
2024-02-24T13:29:13.777Z,99913.41
2024-02-24T13:31:42.034Z,99914.03
2024-02-24T13:34:10.341Z,99910.66
2024-02-24T13:36:37.991Z,99916.94
2024-02-24T13:39:05.818Z,99911.94
2024-02-24T13:41:33.701Z,99910.47
2024-02-24T13:44:01.440Z,99921.16
2024-02-24T13:46:31.363Z,99911.78
2024-02-24T13:49:04.788Z,99914.06
2024-02-24T13:51:33.157Z,99918.59
2024-02-24T13:54:00.959Z,99904.72
2024-02-24T13:56:28.707Z,99910.88
2024-02-24T13:58:56.801Z,99905.06
2024-02-24T14:01:24.434Z,99915.25
2024-02-24T14:03:52.325Z,99911.38
2024-02-24T14:06:24.214Z,99916.09
2024-02-24T14:08:52.762Z,99914.28
2024-02-24T14:11:20.561Z,99917.53
2024-02-24T14:13:48.208Z,99919.97
2024-02-24T14:16:16.959Z,99924.94
2024-02-24T14:18:44.826Z,99933.38
2024-02-24T14:21:12.619Z,99934.00
2024-02-24T14:23:41.599Z,99930.31
2024-02-24T14:26:09.308Z,99938.22
2024-02-24T14:28:36.938Z,99944.03
2024-02-24T14:31:04.951Z,99941.91
2024-02-24T14:33:32.882Z,99943.38
2024-02-24T14:36:00.702Z,99946.28
2024-02-24T14:38:28.476Z,99944.66
2024-02-24T14:41:01.101Z,99946.91
2024-02-24T14:43:28.952Z,99940.63
2024-02-24T14:45:57.826Z,99953.22
2024-02-24T14:48:25.609Z,99945.78
2024-02-24T14:50:54.400Z,99951.28
2024-02-24T14:53:22.102Z,99957.28
2024-02-24T14:55:49.739Z,99949.84
2024-02-24T14:58:17.319Z,99954.66
2024-02-24T15:00:46.103Z,99957.13
2024-02-24T15:03:13.726Z,99960.34
2024-02-24T15:05:43.056Z,99950.63
2024-02-24T15:08:10.855Z,99964.69
2024-02-24T15:10:40.032Z,99958.88
2024-02-24T15:13:07.663Z,99969.06
2024-02-24T15:15:35.479Z,99965.50
2024-02-24T15:18:06.042Z,99962.59
2024-02-24T15:20:33.991Z,99964.69
2024-02-24T15:23:02.040Z,99967.91
2024-02-24T15:25:29.675Z,99966.81
2024-02-24T15:27:57.373Z,99975.06
2024-02-24T15:30:26.233Z,99973.25
2024-02-24T15:32:59.495Z,99976.97
2024-02-24T15:35:27.414Z,99987.97
2024-02-24T15:38:02.875Z,99991.84
2024-02-24T15:40:33.553Z,99993.78
2024-02-24T15:43:02.606Z,99988.94
2024-02-24T15:45:30.663Z,99985.72
2024-02-24T15:47:58.260Z,99990.72
2024-02-24T15:50:26.536Z,99995.72
2024-02-24T15:52:54.332Z,99994.72
2024-02-24T15:55:21.829Z,100002.50
2024-02-24T15:57:49.499Z,100000.41
2024-02-24T16:00:19.992Z,100005.06
2024-02-24T16:02:47.722Z,100001.84
2024-02-24T16:05:19.197Z,100006.19
2024-02-24T16:07:49.140Z,100004.56
2024-02-24T16:10:18.152Z,100003.78
2024-02-24T16:12:46.180Z,100006.03
2024-02-24T16:15:14.106Z,100009.75
2024-02-24T16:17:41.833Z,100016.34
2024-02-24T16:20:10.071Z,100012.94
2024-02-24T16:22:37.716Z,100016.28
2024-02-24T16:25:06.309Z,100018.06
2024-02-24T16:27:33.876Z,100020.97
2024-02-24T16:30:01.664Z,100024.31
2024-02-24T16:32:29.538Z,100036.25
2024-02-24T16:34:57.412Z,100037.19
2024-02-24T16:37:25.143Z,100044.59
2024-02-24T16:39:57.103Z,100044.72
2024-02-24T16:42:24.885Z,100035.81
2024-02-24T16:44:52.712Z,100040.63
2024-02-24T16:47:20.653Z,100042.72
2024-02-24T16:49:48.392Z,100046.06
2024-02-24T16:52:16.014Z,100042.16
2024-02-24T16:54:43.849Z,100055.19
2024-02-24T16:57:11.777Z,100053.38
2024-02-24T16:59:42.518Z,100044.97
2024-02-24T17:02:11.047Z,100050.28
2024-02-24T17:04:40.821Z,100053.13
2024-02-24T17:07:09.300Z,100047.44
2024-02-24T17:09:37.125Z,100050.81
2024-02-24T17:12:05.116Z,100053.38
2024-02-24T17:14:32.919Z,100053.97
2024-02-24T17:17:00.552Z,100055.44
2024-02-24T17:19:28.548Z,100054.91
2024-02-24T17:21:56.242Z,100053.28
2024-02-24T17:24:23.993Z,100056.69
2024-02-24T17:26:55.801Z,100056.69
2024-02-24T17:29:23.765Z,100061.31
2024-02-24T17:31:51.468Z,100058.09
2024-02-24T17:34:19.216Z,100063.06
2024-02-24T17:36:50.026Z,100060.03
2024-02-24T17:39:17.635Z,100064.69
2024-02-24T17:41:45.453Z,100064.38
2024-02-24T17:44:13.197Z,100065.19
2024-02-24T17:46:40.951Z,100056.47
2024-02-24T17:49:08.666Z,100066.63
2024-02-24T17:51:36.283Z,100063.88
2024-02-24T17:54:04.140Z,100072.09
2024-02-24T17:56:33.864Z,100068.03
2024-02-24T17:59:03.625Z,100068.34
2024-02-24T18:01:31.154Z,100069.00
2024-02-24T18:03:59.714Z,100072.00
2024-02-24T18:06:27.778Z,100076.47
2024-02-24T18:08:55.699Z,100079.84
2024-02-24T18:11:23.882Z,100079.84
2024-02-24T18:13:51.605Z,100080.19
2024-02-24T18:16:19.264Z,100085.44
2024-02-24T18:18:47.071Z,100087.16
2024-02-24T18:21:21.380Z,100090.22
2024-02-24T18:23:49.112Z,100084.53
2024-02-24T18:26:16.772Z,100083.56
2024-02-24T18:28:44.413Z,100085.75
2024-02-24T18:31:11.960Z,100087.19
2024-02-24T18:33:39.782Z,100076.34
2024-02-24T18:36:08.620Z,100083.53
2024-02-24T18:38:36.271Z,100078.16
2024-02-24T18:41:04.079Z,100088.09
2024-02-24T18:43:31.724Z,100076.97
2024-02-24T18:45:59.451Z,100084.66
2024-02-24T18:48:28.457Z,100084.47
2024-02-24T18:50:56.316Z,100079.59
2024-02-24T18:53:24.034Z,100085.69
2024-02-24T18:55:51.845Z,100095.78
2024-02-24T18:58:19.453Z,100092.56
2024-02-24T19:00:47.055Z,100091.53
2024-02-24T19:03:15.325Z,100086.06
2024-02-24T19:05:43.409Z,100091.03
2024-02-24T19:08:10.995Z,100092.25
2024-02-24T19:10:38.762Z,100098.63
2024-02-24T19:13:06.381Z,100084.16
2024-02-24T19:15:34.006Z,100089.72
2024-02-24T19:18:02.901Z,100091.94
2024-02-24T19:20:31.134Z,100082.72
2024-02-24T19:23:00.518Z,100090.41
2024-02-24T19:25:28.275Z,100095.88
2024-02-24T19:27:56.195Z,100092.63
2024-02-24T19:30:23.864Z,100092.31
2024-02-24T19:32:51.999Z,100095.88
2024-02-24T19:35:19.733Z,100095.38
2024-02-24T19:37:47.622Z,100100.53
2024-02-24T19:40:15.597Z,100092.03
2024-02-24T19:42:43.182Z,100095.28
2024-02-24T19:45:15.587Z,100089.50
2024-02-24T19:48:02.087Z,100093.84
2024-02-24T19:50:29.926Z,100084.84
2024-02-24T19:52:57.598Z,100088.09
2024-02-24T19:55:27.185Z,100091.00
2024-02-24T19:57:54.944Z,100091.00
2024-02-24T20:00:22.652Z,100087.19
2024-02-24T20:02:50.172Z,100088.91
2024-02-24T20:05:20.113Z,100086.16
2024-02-24T20:07:48.175Z,100088.59
2024-02-24T20:10:15.920Z,100083.13
2024-02-24T20:12:43.405Z,100084.75
2024-02-24T20:15:11.696Z,100082.00
2024-02-24T20:17:39.379Z,100084.75
2024-02-24T20:20:08.366Z,100088.00
2024-02-24T20:22:35.932Z,100087.38
2024-02-24T20:25:03.758Z,100093.66
2024-02-24T20:27:31.326Z,100090.03
2024-02-24T20:29:58.971Z,100091.63
2024-02-24T20:32:26.965Z,100098.13
2024-02-24T20:34:54.653Z,100093.69
2024-02-24T20:37:22.227Z,100081.03
2024-02-24T20:39:50.186Z,100090.03
2024-02-24T20:42:17.742Z,100083.75
2024-02-24T20:44:45.289Z,100088.59
2024-02-24T20:47:12.919Z,100084.16
2024-02-24T20:49:40.383Z,100088.81
2024-02-24T20:52:08.665Z,100083.84
2024-02-24T20:54:39.799Z,100090.94
2024-02-24T20:57:08.433Z,100088.19
2024-02-24T20:59:36.076Z,100095.00
2024-02-24T21:02:03.738Z,100087.59
2024-02-24T21:04:31.309Z,100084.06
2024-02-24T21:07:02.413Z,100083.25
2024-02-24T21:09:30.546Z,100085.44
2024-02-24T21:11:58.261Z,100070.97
2024-02-24T21:14:25.934Z,100068.22
2024-02-24T21:16:54.120Z,100072.28
2024-02-24T21:19:21.725Z,100066.28
2024-02-24T21:21:50.146Z,100070.97
2024-02-24T21:24:18.336Z,100067.41
2024-02-24T21:26:47.831Z,100073.41
2024-02-24T21:29:16.407Z,100070.38
2024-02-24T21:31:43.910Z,100065.69
2024-02-24T21:34:11.708Z,100064.88
2024-02-24T21:36:39.447Z,100059.41
2024-02-24T21:39:07.782Z,100051.69
2024-02-24T21:41:38.210Z,100045.41
2024-02-24T21:44:07.929Z,100047.34
2024-02-24T21:46:35.427Z,100055.75
2024-02-24T21:49:03.377Z,100050.28
2024-02-24T21:51:55.421Z,100044.81
2024-02-24T21:54:23.657Z,100044.00
2024-02-24T21:56:55.499Z,100043.69
2024-02-24T21:59:25.363Z,100049.75
2024-02-24T22:01:56.101Z,100041.38
2024-02-24T22:04:25.144Z,100040.56
2024-02-24T22:06:54.348Z,100041.97
2024-02-24T22:09:22.134Z,100034.88
2024-02-24T22:11:49.943Z,100031.66
2024-02-24T22:14:22.583Z,100034.19
2024-02-24T22:16:50.500Z,100032.84
2024-02-24T22:19:18.618Z,100028.81
2024-02-24T22:21:46.752Z,100026.38
2024-02-24T22:24:14.347Z,100023.13
2024-02-24T22:26:46.914Z,100017.66
2024-02-24T22:29:16.047Z,100022.31
2024-02-24T22:31:46.159Z,100025.06
2024-02-24T22:34:14.145Z,100020.72
2024-02-24T22:36:43.251Z,100014.44
2024-02-24T22:39:10.878Z,100019.09
2024-02-24T22:41:38.604Z,100008.94
2024-02-24T22:44:12.089Z,100012.81
2024-02-24T22:46:40.166Z,100007.94
2024-02-24T22:49:07.837Z,100015.66
2024-02-24T22:51:35.848Z,100010.19
2024-02-24T22:54:03.692Z,100014.53
2024-02-24T22:56:31.515Z,100010.50
2024-02-24T22:59:02.137Z,100012.38
2024-02-24T23:01:31.876Z,100005.31
2024-02-24T23:04:02.041Z,100005.31
2024-02-24T23:06:30.982Z,100012.69
2024-02-24T23:08:58.622Z,100010.50
2024-02-24T23:11:33.047Z,100006.31
2024-02-24T23:14:09.053Z,100003.91
2024-02-24T23:16:36.839Z,100002.28
2024-02-24T23:19:04.675Z,100005.81
2024-02-24T23:21:36.318Z,100014.53
2024-02-24T23:24:07.238Z,100004.19
2024-02-24T23:26:35.570Z,100003.09
2024-02-24T23:29:04.027Z,100000.84
2024-02-24T23:31:31.871Z,99997.31
2024-02-24T23:33:59.786Z,99990.41
2024-02-24T23:36:28.616Z,99978.97
2024-02-24T23:38:56.265Z,99982.81
2024-02-24T23:41:25.440Z,99979.78
2024-02-24T23:43:53.001Z,99982.19
2024-02-24T23:46:20.528Z,99979.78
2024-02-24T23:48:48.544Z,99970.75
2024-02-24T23:51:16.192Z,99965.28
2024-02-24T23:53:45.072Z,99970.44
2024-02-24T23:56:24.146Z,99960.31
2024-02-24T23:58:52.520Z,99966.41
